Historyczne dane pomiarowe

Dodano dane terminowe – wersja testowa.

Dane z okresu 1951-2019

Wersja bazy: 1.34 [2019-03-16, lista zmian], aktualizacja planowana na 2019-04-15

Dane meteo z obszaru Polski uzyskane na podstawie danych udostępnionych przez Instytut Meteorologii i Gospodarki Wodnej – Państwowy Instytut Badawczy.

 

Wybierz Datę:    

       

TemperaturaWilgotnośćWiatrCiśnienieOpadyŚniegCzas trwania zjawisk
 Stacja t tx tn tng RH VA  wxwx mslp ppp RRR   cm mm wxwxwxwxwxwxwx
1999-08-14 11.9 16.7 8.7 8.7 69.5 9.4 4.4 0.9 0.0 0.0- 915.0 0.0 0.0 0.0- 0.0 8.1---- 15.0--
1999-08-13 11.7 14.2 9.5 7.3 82.8 11.3 7.1 0.3 0.0 0.0- 915.8 0.0 0.0 0.0- 0.0 0.0---- 4.0--
1999-08-12 12.2 16.8 10.8 10.9 89.3 12.7 7.4 0.6 0.0 0.0- 918.2 0.1 0.1 0.0- 0.0 0.0 4.5------
1999-08-11 16.3 20.9 12.6 10.5 80.0 14.6 4.5 1.3 0.0 0.0- 916.7 1.3 0.0 1.3- 0.0 6.7 0.3----- 1.6
1999-08-10 19.1 26.0 14.8 14.1 84.9 18.6 5.9 1.1 0.0 0.0- 914.2 23.6 0.5 23.1- 0.0 5.7 3.3----- 4.9
1999-08-09 18.5 26.6 10.3 8.1 79.4 16.7 2.8 0.6 0.0 0.0- 913.0 15.9 11.3 4.6- 0.0 8.0 2.3--- 8.0- 3.2
1999-08-08 19.1 25.8 14.3 12.4 77.9 16.9 4.6 1.0 0.0 0.0- 910.0 0.0 0.0 0.0- 0.0 9.3 2.3--- 6.0- 0.5
1999-08-07 18.3 25.3 12.2 9.8 80.5 16.5 5.1 0.9 0.0 0.0- 913.5 2.3 1.5 0.8- 0.0 8.2 0.4----- 2.6
1999-08-06 17.6 24.2 13.3 11.5 80.5 15.9 5.6 0.9 0.0 0.0- 916.7 2.8 2.8 0.0- 0.0 7.5 3.3----- 1.0
1999-08-05 15.4 22.4 7.8 4.9 71.1 11.9 4.5 1.1 0.0 0.0- 918.9 0.8 0.0 0.8- 0.0 9.8---- 8.0--
1999-08-04 13.5 19.3 7.1 4.7 75.5 11.6 2.5 0.9 0.0 0.0- 919.1 0.0 0.0 0.0- 0.0 8.6---- 13.0--
1999-08-03 12.4 17.3 7.1 5.0 77.4 10.9 5.9 0.8 0.0 0.0- 919.3 0.0 0.0 0.0- 0.0 1.7---- 14.0--
1999-08-02 12.0 16.0 7.5 5.2 83.0 11.5 7.0 0.5 0.0 0.0- 920.2 0.0 0.0 0.0- 0.0 0.8 0.3--- 14.0--
1999-08-01 13.2 18.2 10.6 9.4 79.4 11.9 5.4 0.8 0.0 0.0- 920.1 1.8 1.8 0.0- 0.0 4.6 2.0--- 5.0--
1999-07-31 13.9 18.8 7.6 4.8 73.9 11.3 6.1 1.0 0.0 0.0- 919.0 4.8 0.0 4.8- 0.0 5.9 2.8------
1999-07-30 12.5 17.1 7.0 4.6 82.4 11.8 5.1 0.8 0.0 0.0- 919.4 1.1 1.1 0.0- 0.0 3.9 1.0--- 9.0--
1999-07-29 13.6 17.3 9.1 6.8 77.1 11.8 4.9 1.0 0.0 0.0- 920.8 0.0 0.0 0.0- 0.0 5.7---- 15.0--
1999-07-28 15.1 19.4 13.5 13.7 88.5 15.1 6.6 0.8 0.0 0.0- 920.7 0.4 0.4 0.0- 0.0 2.8 8.2------
1999-07-27 15.6 16.8 14.9 14.9 96.5 17.1 8.0 0.8 0.0 0.0- 920.6 31.6 21.4 10.2- 0.0 0.0 9.7-- 4.6-- 1.5
1999-07-26 16.5 22.3 11.2 8.9 89.6 16.9 5.4 0.6 0.0 0.0- 919.8 8.1 7.7 0.4- 0.0 3.6 4.0--- 10.0- 4.1
1999-07-25 15.7 21.3 8.7 7.0 82.1 14.6 5.8 1.0 0.0 0.0- 923.0 0.0 0.0 0.0- 0.0 7.1---- 14.0--
1999-07-24 12.0 14.3 9.7 9.4 89.4 12.5 7.4 0.5 0.0 0.0- 922.5 0.0 0.0 0.0- 0.0 0.0---- 4.0--
1999-07-23 11.3 15.2 9.8 11.0 93.8 12.6 8.0 0.4 0.0 0.0- 916.4 31.2 30.8 0.4- 0.0 0.0 19.6------
1999-07-22 16.2 20.5 13.2 10.8 73.6 13.3 5.8 1.1 0.0 0.0- 916.6 21.6 0.2 21.4- 0.0 3.3 1.4------
1999-07-21 19.2 25.4 13.7 11.6 67.4 14.5 4.8 2.0 0.0 0.0- 918.1 0.9 0.0 0.9- 0.0 9.2 0.5--- 7.0--
1999-07-20 18.4 24.1 11.8 9.9 65.9 13.7 2.8 1.5 0.0 0.0- 920.1 0.0 0.0 0.0- 0.0 9.5---- 10.0--
1999-07-19 16.8 23.8 8.1 6.2 64.0 11.6 4.5 0.9 0.0 0.0- 922.1 0.0 0.0 0.0- 0.0 10.4---- 13.0--
1999-07-18 14.9 20.5 7.6 5.5 64.8 10.3 1.5 1.3 0.0 0.0- 923.5 0.0 0.0 0.0- 0.0 12.3---- 13.0--
1999-07-17 13.7 18.4 9.1 7.3 73.6 11.3 4.6 0.9 0.0 0.0- 923.3 0.0 0.0 0.0- 0.0 6.7---- 5.0--
1999-07-16 13.5 17.6 9.8 7.3 76.9 11.7 5.8 1.0 0.0 0.0- 919.6 0.0 0.0 0.0- 0.0 6.9 1.4------
1999-07-15 13.5 16.8 12.3 12.5 83.4 12.9 7.3 1.3 0.0 0.0- 914.2 1.4 0.5 0.9- 0.0 1.9 2.0------
1999-07-14 16.2 22.1 13.8 12.8 88.0 16.2 6.6 1.1 0.0 0.0- 909.5 10.8 6.2 4.6- 0.0 1.1 11.9----- 4.0
1999-07-13 17.9 22.3 14.5 13.0 80.8 16.3 7.3 0.5 0.0 0.0- 914.4 12.6 3.2 9.4- 0.0 3.9 4.2----- 2.3
1999-07-12 17.5 22.9 12.5 10.7 85.6 16.9 5.0 0.8 0.0 0.0- 919.9 4.7 2.0 2.7- 0.0 7.1 0.6-- 1.3-- 1.8
1999-07-11 16.7 18.4 15.6 15.0 90.1 17.1 7.8 1.1 0.0 0.0- 921.8 2.3 2.1 0.2- 0.0 0.1 4.2----- 0.3
1999-07-10 16.3 18.0 15.5 15.5 94.8 17.5 7.9 1.5 0.0 0.0- 922.6 3.4 1.5 1.9- 0.0 0.3 8.2------
1999-07-09 16.9 20.4 13.6 12.4 89.5 17.2 7.6 1.1 0.0 0.0- 923.2 28.6 7.8 20.8- 0.0 0.9 6.2-- 1.2-- 1.4
1999-07-08 17.1 19.6 14.9 14.4 89.8 17.5 7.6 1.0 0.0 0.0- 920.6 15.0 10.3 4.7- 0.0 0.0 10.1----- 7.5
1999-07-07 19.3 25.0 16.6 15.4 75.8 16.8 5.8 0.9 0.0 0.0- 919.8 25.5 11.1 14.4- 0.0 5.5 4.7----- 3.8
1999-07-06 24.4 27.8 19.7 16.2 46.9 14.2 2.1 2.8 0.0 0.0- 917.0 0.0 0.0 0.0- 0.0 12.5-------
1999-07-05 21.4 28.5 12.8 10.6 63.3 15.3 1.9 1.6 0.0 0.0- 919.4 0.0 0.0 0.0- 0.0 12.9---- 8.0--
1999-07-04 19.7 26.8 10.6 8.8 68.8 15.2 0.8 1.0 0.0 0.0- 919.7 0.0 0.0 0.0- 0.0 13.6---- 13.0--
1999-07-03 16.6 22.0 10.8 10.4 78.6 14.6 4.9 0.8 0.0 0.0- 919.6 0.0 0.0 0.0- 0.0 5.6---- 4.0--
1999-07-02 16.0 19.8 14.1 12.0 85.4 15.4 6.3 0.8 0.0 0.0- 919.2 2.2 2.2 0.0- 0.0 4.9 1.1----- 0.8
1999-07-01 17.1 22.8 12.0 10.2 77.8 14.8 6.4 1.3 0.0 0.0- 920.3 50.1 26.5 23.6- 0.0 8.0 2.7----- 2.6
1999-06-30 17.2 20.8 12.0 11.4 80.0 15.6 7.1 0.5 0.0 0.0- 921.0 0.5 0.5 0.0- 0.0 3.8 2.7----- 2.1
1999-06-29 16.4 21.5 11.6 9.8 77.0 14.1 6.4 0.6 0.0 0.0- 923.0 0.0 0.0 0.0- 0.0 5.3 1.2------
1999-06-28 15.0 23.2 8.7 6.6 75.3 12.6 6.9 1.1 0.0 0.0- 918.2 7.0 4.9 2.1- 0.0 6.0 4.7--- 7.0- 7.6
1999-06-27 16.5 24.3 6.9 4.2 64.5 11.6 3.5 0.9 0.0 0.0- 917.7 0.0 0.0 0.0- 0.0 12.1---- 12.0--
1999-06-26 13.4 21.2 3.3 3.1 68.6 10.2 1.0 0.8 0.0 0.0- 918.8 0.0 0.0 0.0- 0.0 12.5---- 11.0--
1999-06-25 10.2 16.0 2.9 1.0 69.3 8.3 3.5 1.1 0.0 0.0- 922.3 0.0 0.0 0.0- 0.0 11.4---- 4.0--
1999-06-24 7.5 9.5 5.9 5.8 86.9 9.0 7.5 0.4 0.0 0.0- 923.6 0.0 0.0 0.0- 0.0 0.0 0.2------
1999-06-23 6.4 7.6 5.1 4.9 93.9 9.0 8.0 0.6 0.0 0.0- 919.6 8.7 8.3 0.4- 0.0 0.0 18.6------
1999-06-22 8.0 13.7 6.0 6.2 93.8 10.1 8.0 1.4 0.0 0.0- 909.9 28.7 11.8 16.9- 0.0 0.0 24.0------
1999-06-21 15.0 20.3 13.2 12.5 86.5 14.7 6.6 0.8 0.0 0.0- 910.5 22.2 4.9 17.3- 0.0 3.4 9.0----- 3.1
1999-06-20 15.3 20.1 12.6 12.5 87.5 15.2 7.5 0.6 0.0 0.0- 918.1 0.4 0.0 0.4- 0.0 1.3 1.9------
1999-06-19 14.2 17.9 12.0 11.9 88.6 14.4 7.8 0.6 0.0 0.0- 919.0 1.2 0.5 0.7- 0.0 0.3 5.0------
1999-06-18 14.4 16.6 13.2 12.9 91.0 14.9 7.6 0.4 0.0 0.0- 915.2 10.0 10.0 0.0- 0.0 0.0 9.1------
1999-06-17 14.9 18.3 12.7 11.6 92.5 15.6 7.5 0.6 0.0 0.0- 919.4 17.7 16.0 1.7- 0.0 0.4 8.7----- 3.5
1999-06-16 15.2 19.0 13.6 12.8 93.1 16.1 7.8 0.4 0.0 0.0- 923.4 6.2 6.2 0.0- 0.0 0.6 10.1-- 6.3---
645.3 ms

 

Źródłem pochodzenia danych jest Instytut Meteorologii i Gospodarki Wodnej – Państwowy Instytut Badawczy. Dane Instytutu Meteorologii i Gospodarki Wodnej – Państwowego Instytutu Badawczego zostały przetworzone.

Dane źródłowe można odnaleźć na stronie https://dane.imgw.pl